createdAt,value
2022-12-13T00:01:41.999Z,98027.13
2022-12-13T00:04:43.660Z,98032.31
2022-12-13T00:07:45.506Z,98015.84
2022-12-13T00:10:47.166Z,98014.91
2022-12-13T00:13:50.255Z,98020.13
2022-12-13T00:16:51.888Z,98012.28
2022-12-13T00:19:53.659Z,98008.78
2022-12-13T00:22:55.396Z,98001.84
2022-12-13T00:26:01.678Z,98002.78
2022-12-13T00:29:06.012Z,98007.97
2022-12-13T00:32:07.636Z,98011.38
2022-12-13T00:35:09.519Z,98007.88
2022-12-13T00:38:11.443Z,97998.38
2022-12-13T00:41:13.592Z,98008.84
2022-12-13T00:44:16.778Z,98001.06
2022-12-13T00:47:20.839Z,97993.25
2022-12-13T00:50:22.658Z,97988.06
2022-12-13T00:53:24.412Z,97993.25
2022-12-13T00:56:27.783Z,97990.69
2022-12-13T00:59:30.886Z,97998.47
2022-12-13T01:02:32.438Z,97991.53
2022-12-13T01:06:12.881Z,97988.94
2022-12-13T01:08:57.168Z,97995.88
2022-12-13T01:12:00.258Z,97993.31
2022-12-13T01:15:03.989Z,97992.41
2022-12-13T01:18:05.664Z,97991.53
2022-12-13T01:21:08.446Z,97992.31
2022-12-13T01:24:10.462Z,97998.44
2022-12-13T01:27:12.110Z,97998.53
2022-12-13T01:30:15.252Z,98003.75
2022-12-13T01:33:16.999Z,97995.94
2022-12-13T01:36:19.708Z,97996.78
2022-12-13T01:39:31.041Z,97998.44
2022-12-13T01:42:40.072Z,98000.19
2022-12-13T01:45:43.508Z,98001.03
2022-12-13T01:48:47.593Z,98000.25
2022-12-13T01:51:53.546Z,97995.06
2022-12-13T01:54:57.474Z,97990.75
2022-12-13T01:58:06.168Z,97991.59
2022-12-13T02:01:09.249Z,97994.22
2022-12-13T02:04:11.632Z,97990.75
2022-12-13T02:07:23.296Z,97990.75
2022-12-13T02:10:25.798Z,97984.69
2022-12-13T02:13:27.502Z,97982.94
2022-12-13T02:16:39.123Z,97979.53
2022-12-13T02:19:58.668Z,97974.28
2022-12-13T02:23:10.055Z,97982.00
2022-12-13T02:26:22.960Z,97976.00
2022-12-13T02:29:45.703Z,97978.59
2022-12-13T02:32:56.289Z,97971.69
2022-12-13T02:36:04.958Z,97968.16
2022-12-13T02:39:08.914Z,97968.13
2022-12-13T02:42:22.009Z,97964.66
2022-12-13T02:45:27.958Z,97970.63
2022-12-13T02:48:34.247Z,97965.44
2022-12-13T02:51:39.518Z,97969.81
2022-12-13T02:54:42.787Z,97965.47
2022-12-13T02:57:45.383Z,97975.06
2022-12-13T03:00:52.579Z,97981.03
2022-12-13T03:04:01.211Z,97977.59
2022-12-13T03:07:08.442Z,97981.13
2022-12-13T03:10:14.274Z,97978.44
2022-12-13T03:13:38.021Z,97978.47
2022-12-13T03:16:42.369Z,97975.03
2022-12-13T03:19:45.305Z,97982.88
2022-12-13T03:22:46.854Z,97971.63
2022-12-13T03:25:50.228Z,97970.72
2022-12-13T03:28:53.514Z,97979.38
2022-12-13T03:31:55.296Z,97975.00
2022-12-13T03:35:12.204Z,97981.13
2022-12-13T03:38:21.921Z,97978.50
2022-12-13T03:41:31.768Z,97969.00
2022-12-13T03:44:33.358Z,97974.19
2022-12-13T03:47:35.134Z,97970.72
2022-12-13T03:50:38.203Z,97973.34
2022-12-13T03:53:40.094Z,97966.50
2022-12-13T03:56:42.073Z,97968.22
2022-12-13T03:59:43.653Z,97965.56
2022-12-13T04:02:45.377Z,97962.97
2022-12-13T04:05:48.512Z,97964.78
2022-12-13T04:08:51.291Z,97974.31
2022-12-13T04:12:12.292Z,97970.84
2022-12-13T04:15:14.092Z,97965.56
2022-12-13T04:18:16.333Z,97961.22
2022-12-13T04:21:19.300Z,97956.03
2022-12-13T04:24:21.009Z,97956.09
2022-12-13T04:27:22.912Z,97968.22
2022-12-13T04:30:24.511Z,97953.44
2022-12-13T04:33:26.157Z,97956.00
2022-12-13T04:36:31.428Z,97956.81
2022-12-13T04:39:34.702Z,97955.13
2022-12-13T04:42:36.570Z,97954.22
2022-12-13T04:45:38.261Z,97958.59
2022-12-13T04:48:39.928Z,97958.53
2022-12-13T04:51:42.966Z,97960.25
2022-12-13T04:54:55.794Z,97955.88
2022-12-13T04:57:57.974Z,97964.44
2022-12-13T05:00:59.775Z,97967.88
2022-12-13T05:04:03.362Z,97966.09
2022-12-13T05:07:06.542Z,97960.03
2022-12-13T05:10:08.484Z,97947.88
2022-12-13T05:13:10.168Z,97947.84
2022-12-13T05:16:12.630Z,97952.19
2022-12-13T05:19:14.852Z,97947.00
2022-12-13T05:22:20.836Z,97953.94
2022-12-13T05:25:22.787Z,97961.69
2022-12-13T05:28:27.100Z,97953.91
2022-12-13T05:31:33.589Z,97945.25
2022-12-13T05:34:35.376Z,97941.72
2022-12-13T05:37:38.442Z,97941.72
2022-12-13T05:40:40.026Z,97951.25
2022-12-13T05:43:43.864Z,97947.78
2022-12-13T05:46:46.202Z,97947.00
2022-12-13T05:49:47.981Z,97940.09
2022-12-13T05:52:51.268Z,97942.66
2022-12-13T05:55:52.874Z,97942.66
2022-12-13T05:58:54.782Z,97934.84
2022-12-13T06:01:57.129Z,97930.44
2022-12-13T06:04:58.825Z,97939.91
2022-12-13T06:08:01.908Z,97933.03
2022-12-13T06:11:10.970Z,97938.31
2022-12-13T06:14:22.729Z,97933.13
2022-12-13T06:17:25.333Z,97934.84
2022-12-13T06:20:27.082Z,97930.47
2022-12-13T06:23:30.898Z,97926.16
2022-12-13T06:26:32.564Z,97930.53
2022-12-13T06:29:34.412Z,97927.03
2022-12-13T06:32:39.971Z,97922.78
2022-12-13T06:35:44.231Z,97927.09
2022-12-13T06:38:47.155Z,97923.66
2022-12-13T06:41:48.803Z,97926.19
2022-12-13T06:44:56.208Z,97926.16
2022-12-13T06:47:59.113Z,97918.44
2022-12-13T06:51:01.747Z,97929.72
2022-12-13T06:54:04.902Z,97926.22
2022-12-13T06:57:06.510Z,97927.00
2022-12-13T07:00:08.922Z,97930.38
2022-12-13T07:03:11.469Z,97939.88
2022-12-13T07:06:14.482Z,97935.53
2022-12-13T07:09:17.510Z,97939.91
2022-12-13T07:12:21.039Z,97940.75
2022-12-13T07:15:22.784Z,97938.22
2022-12-13T07:18:24.325Z,97938.16
2022-12-13T07:21:25.949Z,97935.47
2022-12-13T07:24:28.885Z,97940.66
2022-12-13T07:27:30.630Z,97942.34
2022-12-13T07:30:33.386Z,97941.50
2022-12-13T07:33:35.634Z,97935.53
2022-12-13T07:36:37.270Z,97949.38
2022-12-13T07:39:40.741Z,97947.63
2022-12-13T07:42:48.800Z,97955.34
2022-12-13T07:45:50.783Z,97944.94
2022-12-13T07:48:52.485Z,97944.94
2022-12-13T07:52:03.323Z,97949.25
2022-12-13T07:55:07.398Z,97951.78
2022-12-13T07:58:10.045Z,97954.38
2022-12-13T08:01:12.163Z,97957.03
2022-12-13T08:04:14.220Z,97957.06
2022-12-13T08:07:15.920Z,97963.25
2022-12-13T08:10:19.278Z,97970.94
2022-12-13T08:13:21.334Z,97972.66
2022-12-13T08:16:27.824Z,97966.66
2022-12-13T08:19:30.536Z,97973.66
2022-12-13T08:22:35.947Z,97981.44
2022-12-13T08:25:39.331Z,97983.22
2022-12-13T08:28:41.122Z,97971.13
2022-12-13T08:31:42.817Z,97974.56
2022-12-13T08:34:45.565Z,97971.16
2022-12-13T08:37:47.313Z,97979.78
2022-12-13T08:40:51.669Z,97976.41
2022-12-13T08:43:53.326Z,97973.81
2022-12-13T08:46:55.349Z,97977.28
2022-12-13T08:50:02.971Z,97977.22
2022-12-13T08:53:05.490Z,97985.94
2022-12-13T08:56:10.926Z,97979.00
2022-12-13T08:59:12.569Z,97986.84
2022-12-13T09:02:17.996Z,97991.22
2022-12-13T09:05:34.167Z,97988.59
2022-12-13T09:08:37.488Z,97992.00
2022-12-13T09:11:43.486Z,97988.50
2022-12-13T09:14:46.125Z,97998.91
2022-12-13T09:17:52.471Z,97998.00
2022-12-13T09:20:54.511Z,97993.66
2022-12-13T09:24:23.942Z,97992.97
2022-12-13T09:27:29.071Z,97991.34
2022-12-13T09:30:31.525Z,97989.69
2022-12-13T09:33:41.601Z,97990.47
2022-12-13T09:36:43.689Z,97988.59
2022-12-13T09:39:47.503Z,97996.50
2022-12-13T09:43:13.256Z,97996.53
2022-12-13T09:46:22.984Z,97999.97
2022-12-13T09:49:28.423Z,98006.94
2022-12-13T09:52:38.163Z,97999.06
2022-12-13T09:55:42.485Z,97990.59
2022-12-13T09:58:47.823Z,97995.13
2022-12-13T10:01:49.469Z,97998.75
2022-12-13T10:04:52.290Z,97991.81
2022-12-13T10:08:06.275Z,97989.22
2022-12-13T10:11:11.955Z,97991.06
2022-12-13T10:14:19.089Z,97987.56
2022-12-13T10:17:22.062Z,97982.41
2022-12-13T10:20:26.262Z,97970.31
2022-12-13T10:23:42.612Z,97970.38
2022-12-13T10:26:50.062Z,97972.09
2022-12-13T10:30:04.019Z,97974.66
2022-12-13T10:33:06.068Z,97967.72
2022-12-13T10:36:09.346Z,97973.03
2022-12-13T10:39:16.210Z,97967.00
2022-12-13T10:42:22.516Z,97959.19
2022-12-13T10:45:26.822Z,97957.44
2022-12-13T10:48:38.751Z,97955.75
2022-12-13T10:51:41.401Z,97955.78
2022-12-13T10:54:48.224Z,97954.06
2022-12-13T10:57:52.266Z,97959.25
2022-12-13T11:01:07.802Z,97954.03
2022-12-13T11:04:27.128Z,97956.66
2022-12-13T11:07:30.959Z,97948.84
2022-12-13T11:10:32.997Z,97951.47
2022-12-13T11:13:36.995Z,97944.56
2022-12-13T11:16:41.509Z,97928.94
2022-12-13T11:19:45.425Z,97930.66
2022-12-13T11:22:47.164Z,97930.66
2022-12-13T11:25:49.049Z,97923.72
2022-12-13T11:28:59.597Z,97908.09
2022-12-13T11:32:09.189Z,97903.75
2022-12-13T11:35:15.460Z,97895.06
2022-12-13T11:38:28.508Z,97896.78
2022-12-13T11:41:34.039Z,97893.31
2022-12-13T11:44:45.918Z,97893.31
2022-12-13T11:48:01.637Z,97882.88
2022-12-13T11:51:05.760Z,97887.22
2022-12-13T11:54:10.768Z,97887.25
2022-12-13T11:57:16.627Z,97880.25
2022-12-13T12:00:33.882Z,97883.75
2022-12-13T12:03:40.962Z,97878.53
2022-12-13T12:06:46.378Z,97872.44
2022-12-13T12:09:50.605Z,97869.81
2022-12-13T12:12:55.627Z,97865.50
2022-12-13T12:16:06.567Z,97862.03
2022-12-13T12:19:13.005Z,97868.09
2022-12-13T12:22:19.340Z,97875.03
2022-12-13T12:25:25.818Z,97875.91
2022-12-13T12:28:30.997Z,97868.91
2022-12-13T12:31:51.455Z,97861.13
2022-12-13T12:34:57.364Z,97868.91
2022-12-13T12:38:05.590Z,97870.66
2022-12-13T12:41:28.491Z,97866.28
2022-12-13T12:44:34.889Z,97861.09
2022-12-13T12:48:38.572Z,97859.38
2022-12-13T12:51:09.723Z,97850.69
2022-12-13T12:54:23.432Z,97849.84
2022-12-13T12:57:32.767Z,97852.41
2022-12-13T13:00:40.850Z,97846.31
2022-12-13T13:03:43.399Z,97842.84
2022-12-13T13:06:47.630Z,97841.13
2022-12-13T13:09:51.551Z,97832.44
2022-12-13T13:13:11.647Z,97832.44
2022-12-13T13:16:35.022Z,97833.28
2022-12-13T13:19:41.103Z,97822.03
2022-12-13T13:22:47.674Z,97826.38
2022-12-13T13:26:24.333Z,97819.41
2022-12-13T13:29:43.495Z,97828.97
2022-12-13T13:32:46.067Z,97821.13
2022-12-13T13:35:50.576Z,97834.16
2022-12-13T13:39:01.678Z,97824.63
2022-12-13T13:42:17.117Z,97831.59
2022-12-13T13:45:20.398Z,97828.13
2022-12-13T13:48:28.332Z,97825.50
2022-12-13T13:52:16.654Z,97822.00
2022-12-13T13:55:24.614Z,97835.06
2022-12-13T13:58:51.438Z,97829.88
2022-12-13T14:02:10.882Z,97829.00
2022-12-13T14:05:34.720Z,97832.50
2022-12-13T14:08:41.737Z,97835.13
2022-12-13T14:12:06.047Z,97842.06
2022-12-13T14:15:35.639Z,97849.88
2022-12-13T14:19:11.668Z,97849.88
2022-12-13T14:22:21.069Z,97838.63
2022-12-13T14:25:32.267Z,97849.03
2022-12-13T14:28:41.899Z,97847.31
2022-12-13T14:31:45.214Z,97847.28
2022-12-13T14:34:47.031Z,97857.69
2022-12-13T14:37:56.647Z,97853.34
2022-12-13T14:40:59.914Z,97857.69
2022-12-13T14:44:15.670Z,97853.34
2022-12-13T14:47:17.659Z,97851.59
2022-12-13T14:50:19.557Z,97850.75
2022-12-13T14:53:24.607Z,97847.25
2022-12-13T14:56:28.483Z,97838.56
2022-12-13T14:59:33.459Z,97831.63
2022-12-13T15:02:35.158Z,97833.34
2022-12-13T15:05:38.556Z,97831.63
2022-12-13T15:08:42.001Z,97836.78
2022-12-13T15:11:44.600Z,97837.66
2022-12-13T15:14:49.790Z,97832.44
2022-12-13T15:18:04.301Z,97834.16
2022-12-13T15:21:17.835Z,97836.75
2022-12-13T15:24:24.547Z,97826.34
2022-12-13T15:27:27.067Z,97830.66
2022-12-13T15:30:31.811Z,97828.06
2022-12-13T15:33:38.052Z,97814.16
2022-12-13T15:36:42.626Z,97814.09
2022-12-13T15:39:47.832Z,97813.25
2022-12-13T15:42:50.475Z,97812.38
2022-12-13T15:45:53.736Z,97821.03
2022-12-13T15:48:56.008Z,97813.22
2022-12-13T15:51:58.815Z,97814.09
2022-12-13T15:55:02.285Z,97804.56
2022-12-13T15:58:03.946Z,97809.72
2022-12-13T16:01:07.001Z,97807.16
2022-12-13T16:04:08.764Z,97804.56
2022-12-13T16:07:19.841Z,97803.66
2022-12-13T16:10:22.022Z,97799.31
2022-12-13T16:13:26.183Z,97808.84
2022-12-13T16:16:30.504Z,97794.97
2022-12-13T16:19:32.716Z,97791.53
2022-12-13T16:22:34.495Z,97787.22
2022-12-13T16:25:36.230Z,97788.09
2022-12-13T16:28:38.061Z,97786.38
2022-12-13T16:31:44.606Z,97781.16
2022-12-13T16:34:46.189Z,97796.72
2022-12-13T16:37:48.195Z,97789.75
2022-12-13T16:40:52.173Z,97787.16
2022-12-13T16:43:55.987Z,97791.53
2022-12-13T16:47:11.963Z,97792.38
2022-12-13T16:50:21.083Z,97786.31
2022-12-13T16:53:22.743Z,97786.28
2022-12-13T16:56:24.543Z,97770.69
2022-12-13T16:59:27.146Z,97770.63
2022-12-13T17:05:33.273Z,97763.75
2022-12-13T17:08:34.886Z,97767.19
2022-12-13T17:11:36.949Z,97763.69
2022-12-13T17:14:38.654Z,97759.28
2022-12-13T17:17:42.467Z,97761.88
2022-12-13T17:20:44.272Z,97758.34
2022-12-13T17:23:46.009Z,97760.94
2022-12-13T17:26:54.629Z,97761.81
2022-12-13T17:29:56.923Z,97761.00
2022-12-13T17:33:00.189Z,97768.78
2022-12-13T17:36:03.190Z,97765.31
2022-12-13T17:39:04.836Z,97761.88
2022-12-13T17:42:06.790Z,97769.66
2022-12-13T17:45:08.706Z,97767.00
2022-12-13T17:48:11.705Z,97758.34
2022-12-13T17:51:14.082Z,97764.41
2022-12-13T17:54:15.720Z,97773.97
2022-12-13T17:57:17.413Z,97775.75
2022-12-13T18:00:19.154Z,97764.56
2022-12-13T18:03:22.455Z,97760.25
2022-12-13T18:06:24.947Z,97768.09
2022-12-13T18:09:26.514Z,97756.84
2022-12-13T18:12:28.288Z,97756.84
2022-12-13T18:15:30.688Z,97754.22
2022-12-13T18:18:36.898Z,97757.69
2022-12-13T18:21:38.692Z,97750.72
2022-12-13T18:24:40.374Z,97755.00
2022-12-13T18:27:42.661Z,97755.84
2022-12-13T18:30:44.381Z,97749.81
2022-12-13T18:33:48.330Z,97748.94
2022-12-13T18:36:49.915Z,97748.94
2022-12-13T18:39:54.596Z,97746.34
2022-12-13T18:42:56.865Z,97739.41
2022-12-13T18:46:01.380Z,97746.28
2022-12-13T18:49:04.715Z,97743.69
2022-12-13T18:52:06.385Z,97735.03
2022-12-13T18:55:08.297Z,97732.44
2022-12-13T18:58:10.046Z,97737.63
2022-12-13T19:01:12.821Z,97719.47
2022-12-13T19:04:15.862Z,97725.50
2022-12-13T19:07:17.430Z,97723.81
2022-12-13T19:10:19.292Z,97721.19
2022-12-13T19:13:22.977Z,97722.91
2022-12-13T19:16:26.192Z,97725.50
2022-12-13T19:19:29.394Z,97722.91
2022-12-13T19:22:30.926Z,97725.50
2022-12-13T19:25:32.556Z,97724.66
2022-12-13T19:28:34.529Z,97714.25
2022-12-13T19:31:36.463Z,97719.47
2022-12-13T19:34:39.507Z,97710.81
2022-12-13T19:37:41.211Z,97708.19
2022-12-13T19:40:43.257Z,97700.38
2022-12-13T19:43:50.624Z,97708.16
2022-12-13T19:46:56.005Z,97701.22
2022-12-13T19:49:59.191Z,97694.31
2022-12-13T19:53:00.795Z,97695.16
2022-12-13T19:56:02.589Z,97693.44
2022-12-13T19:59:04.289Z,97685.66
2022-12-13T20:02:06.077Z,97687.41
2022-12-13T20:05:09.831Z,97674.44
2022-12-13T20:08:11.410Z,97684.81
2022-12-13T20:11:14.288Z,97685.69
2022-12-13T20:14:16.148Z,97677.91
2022-12-13T20:17:17.760Z,97674.44
2022-12-13T20:20:21.000Z,97671.03
2022-12-13T20:23:22.596Z,97672.78
2022-12-13T20:26:26.025Z,97678.00
2022-12-13T20:29:27.733Z,97671.09
2022-12-13T20:32:30.783Z,97665.03
2022-12-13T20:35:33.995Z,97666.78
2022-12-13T20:38:35.769Z,97661.56
2022-12-13T20:41:37.564Z,97653.78
2022-12-13T20:44:39.312Z,97649.44
2022-12-13T20:47:40.938Z,97646.84
2022-12-13T20:50:43.945Z,97644.25
2022-12-13T20:53:53.238Z,97643.38
2022-12-13T20:56:55.061Z,97635.59
2022-12-13T20:59:56.769Z,97643.41
2022-12-13T21:03:00.385Z,97634.75
2022-12-13T21:06:03.417Z,97638.22
2022-12-13T21:09:05.882Z,97628.69
2022-12-13T21:12:07.448Z,97631.28
2022-12-13T21:15:09.219Z,97626.94
2022-12-13T21:18:10.789Z,97627.81
2022-12-13T21:21:13.903Z,97626.09
2022-12-13T21:24:17.386Z,97628.69
2022-12-13T21:27:19.766Z,97619.16
2022-12-13T21:30:22.350Z,97613.09
2022-12-13T21:33:24.141Z,97607.91
2022-12-13T21:36:28.355Z,97616.56
2022-12-13T21:39:29.916Z,97616.53
2022-12-13T21:42:31.596Z,97609.63
2022-12-13T21:45:35.491Z,97596.63
2022-12-13T21:48:37.937Z,97603.56
2022-12-13T21:51:47.358Z,97594.03
2022-12-13T21:54:52.800Z,97594.91
2022-12-13T21:58:15.991Z,97591.44
2022-12-13T22:01:17.779Z,97590.56
2022-12-13T22:04:20.143Z,97585.34
2022-12-13T22:07:24.440Z,97577.56
2022-12-13T22:10:26.242Z,97581.03
2022-12-13T22:13:28.415Z,97576.72
2022-12-13T22:16:30.366Z,97580.16
2022-12-13T22:19:32.774Z,97570.66
2022-12-13T22:22:37.310Z,97571.50
2022-12-13T22:25:39.005Z,97568.03
2022-12-13T22:28:40.748Z,97562.84
2022-12-13T22:31:42.548Z,97566.31
2022-12-13T22:34:45.083Z,97555.91
2022-12-13T22:37:49.956Z,97564.56
2022-12-13T22:40:51.728Z,97558.50
2022-12-13T22:43:53.555Z,97559.38
2022-12-13T22:46:55.682Z,97548.97
2022-12-13T22:49:57.327Z,97544.63
2022-12-13T22:53:00.627Z,97542.03
2022-12-13T22:56:06.025Z,97532.50
2022-12-13T22:59:08.275Z,97535.94
2022-12-13T23:02:10.403Z,97533.38
2022-12-13T23:05:12.262Z,97525.56
2022-12-13T23:08:15.342Z,97528.16
2022-12-13T23:11:35.605Z,97523.81
2022-12-13T23:14:37.419Z,97526.44
2022-12-13T23:17:39.003Z,97521.25
2022-12-13T23:20:40.749Z,97522.09
2022-12-13T23:23:43.982Z,97522.97
2022-12-13T23:26:45.722Z,97516.03
2022-12-13T23:29:47.370Z,97510.84
2022-12-13T23:32:49.056Z,97509.06
2022-12-13T23:35:57.157Z,97506.47
2022-12-13T23:39:00.558Z,97511.66
2022-12-13T23:42:02.381Z,97510.81
2022-12-13T23:45:04.244Z,97505.63
2022-12-13T23:48:06.359Z,97509.94
2022-12-13T23:51:10.127Z,97518.63
2022-12-13T23:54:16.534Z,97516.00
2022-12-13T23:57:18.187Z,97511.69
